Bonita Beach, Florida
Current Conditions -  °F | °C
As of 10:53 AM on Wednesday 28 Jan 2015 (Local Time) from KRSW Reporting Station
Clear Clear  
Wind Chill: 60°   Ceiling: Unl
Heat Index: 60°   Visibility: 10mi
Dew Point: 38°   Wind: 10mph
Humidity: 44%   Direction: 360°N
Pressure: 30.22"   Gusts: NA
Location:  26.3649°N, 81.8304°W
Report Text: KRSW 281553Z 36009KT 10SM CLR 16/03 A3022 RMK AO2 SLP229 T01560033
Loading
Personal Weather Stations






























Interactive Weather Map New forecast layout! Learn more

10-Day Weather Forecast

Advertisements
Track Severe Weather on mobile